Tuthill, South Dakota
Current Conditions -  °F | °C
As of 2:52 AM on Tuesday 21 Oct 2014 (Local Time) from KVTN Reporting Station
Clear Clear  
Wind Chill: 52°   Ceiling: Unl
Heat Index: 52°   Visibility: 10mi
Dew Point: 39°   Wind: 10mph
Humidity: 61%   Direction: 190°S
Pressure: 29.96"   Gusts: NA
Location:  43.16°N, 101.5°W
Report Text: KVTN 210852Z AUTO 19009KT 10SM CLR 11/04 A2996 RMK AO2 SLP136 T01110039 58002
Loading
Personal Weather Stations






























Interactive Weather Map
Tropical Storm Tracking
New forecast layout! Learn more

10-Day Weather Forecast

Advertisements
Track Severe Weather on mobile